sensor_id;sensor_type;location;lat;lon;timestamp;P1;durP1;ratioP1;P2;durP2;ratioP2
78410;SDS011;67706;51.074;-1.796;2023-04-16T00:01:00;8.13;;;4.60;;
78410;SDS011;67706;51.074;-1.796;2023-04-16T00:03:27;9.82;;;4.97;;
78410;SDS011;67706;51.074;-1.796;2023-04-16T00:05:53;7.72;;;5.20;;
78410;SDS011;67706;51.074;-1.796;2023-04-16T00:08:21;8.30;;;4.95;;
78410;SDS011;67706;51.074;-1.796;2023-04-16T00:10:49;7.82;;;4.85;;
78410;SDS011;67706;51.074;-1.796;2023-04-16T00:13:17;6.63;;;4.60;;
78410;SDS011;67706;51.074;-1.796;2023-04-16T00:15:44;10.05;;;5.05;;
78410;SDS011;67706;51.074;-1.796;2023-04-16T00:18:11;8.10;;;4.75;;
78410;SDS011;67706;51.074;-1.796;2023-04-16T00:20:37;6.88;;;4.68;;
78410;SDS011;67706;51.074;-1.796;2023-04-16T00:23:04;8.68;;;4.05;;
78410;SDS011;67706;51.074;-1.796;2023-04-16T00:25:31;8.90;;;4.65;;
78410;SDS011;67706;51.074;-1.796;2023-04-16T00:27:58;6.63;;;4.68;;
78410;SDS011;67706;51.074;-1.796;2023-04-16T00:30:26;7.68;;;4.22;;
78410;SDS011;67706;51.074;-1.796;2023-04-16T00:32:53;6.95;;;4.72;;
78410;SDS011;67706;51.074;-1.796;2023-04-16T00:35:20;10.02;;;4.90;;
78410;SDS011;67706;51.074;-1.796;2023-04-16T00:37:46;7.18;;;4.75;;
78410;SDS011;67706;51.074;-1.796;2023-04-16T00:40:13;6.78;;;3.85;;
78410;SDS011;67706;51.074;-1.796;2023-04-16T00:42:40;7.72;;;4.40;;
78410;SDS011;67706;51.074;-1.796;2023-04-16T00:45:07;7.82;;;4.18;;
78410;SDS011;67706;51.074;-1.796;2023-04-16T00:47:37;7.50;;;4.15;;
78410;SDS011;67706;51.074;-1.796;2023-04-16T00:50:04;8.25;;;4.38;;
78410;SDS011;67706;51.074;-1.796;2023-04-16T00:52:31;7.95;;;4.38;;
78410;SDS011;67706;51.074;-1.796;2023-04-16T00:54:58;7.65;;;4.53;;
78410;SDS011;67706;51.074;-1.796;2023-04-16T00:57:25;8.40;;;4.00;;
78410;SDS011;67706;51.074;-1.796;2023-04-16T00:59:52;7.47;;;4.47;;
78410;SDS011;67706;51.074;-1.796;2023-04-16T01:02:20;11.23;;;4.72;;
78410;SDS011;67706;51.074;-1.796;2023-04-16T01:04:48;7.95;;;4.65;;
78410;SDS011;67706;51.074;-1.796;2023-04-16T01:07:14;9.82;;;5.05;;
78410;SDS011;67706;51.074;-1.796;2023-04-16T01:09:42;8.48;;;4.72;;
78410;SDS011;67706;51.074;-1.796;2023-04-16T01:12:09;11.82;;;5.30;;
78410;SDS011;67706;51.074;-1.796;2023-04-16T01:14:36;7.88;;;4.55;;
78410;SDS011;67706;51.074;-1.796;2023-04-16T01:17:02;7.97;;;4.22;;
78410;SDS011;67706;51.074;-1.796;2023-04-16T01:19:29;11.55;;;5.20;;
78410;SDS011;67706;51.074;-1.796;2023-04-16T01:21:57;9.38;;;5.18;;
78410;SDS011;67706;51.074;-1.796;2023-04-16T01:24:24;11.30;;;5.38;;
78410;SDS011;67706;51.074;-1.796;2023-04-16T01:26:51;8.73;;;4.28;;
78410;SDS011;67706;51.074;-1.796;2023-04-16T01:29:17;7.55;;;4.20;;
78410;SDS011;67706;51.074;-1.796;2023-04-16T01:31:44;7.35;;;3.65;;
78410;SDS011;67706;51.074;-1.796;2023-04-16T01:34:11;7.25;;;4.25;;
78410;SDS011;67706;51.074;-1.796;2023-04-16T01:36:38;7.22;;;4.10;;
78410;SDS011;67706;51.074;-1.796;2023-04-16T01:39:06;8.38;;;4.65;;
78410;SDS011;67706;51.074;-1.796;2023-04-16T01:41:35;10.27;;;4.82;;
78410;SDS011;67706;51.074;-1.796;2023-04-16T01:44:02;9.82;;;4.85;;
78410;SDS011;67706;51.074;-1.796;2023-04-16T01:46:30;12.35;;;4.68;;
78410;SDS011;67706;51.074;-1.796;2023-04-16T01:48:58;8.20;;;4.70;;
78410;SDS011;67706;51.074;-1.796;2023-04-16T01:51:25;7.82;;;4.72;;
78410;SDS011;67706;51.074;-1.796;2023-04-16T01:53:53;7.03;;;4.20;;
78410;SDS011;67706;51.074;-1.796;2023-04-16T01:56:21;6.55;;;3.85;;
78410;SDS011;67706;51.074;-1.796;2023-04-16T01:58:48;5.15;;;3.47;;
78410;SDS011;67706;51.074;-1.796;2023-04-16T02:01:15;7.00;;;3.70;;
78410;SDS011;67706;51.074;-1.796;2023-04-16T02:03:41;7.57;;;3.47;;
78410;SDS011;67706;51.074;-1.796;2023-04-16T02:06:11;7.20;;;3.40;;
78410;SDS011;67706;51.074;-1.796;2023-04-16T02:08:38;5.78;;;3.35;;
78410;SDS011;67706;51.074;-1.796;2023-04-16T02:11:05;6.63;;;3.65;;
78410;SDS011;67706;51.074;-1.796;2023-04-16T02:13:34;5.47;;;3.22;;
78410;SDS011;67706;51.074;-1.796;2023-04-16T02:16:00;6.15;;;3.22;;
78410;SDS011;67706;51.074;-1.796;2023-04-16T02:18:27;5.22;;;2.97;;
78410;SDS011;67706;51.074;-1.796;2023-04-16T02:20:56;4.88;;;3.00;;
78410;SDS011;67706;51.074;-1.796;2023-04-16T02:23:24;5.25;;;2.88;;
78410;SDS011;67706;51.074;-1.796;2023-04-16T02:25:51;4.25;;;2.92;;
78410;SDS011;67706;51.074;-1.796;2023-04-16T02:28:17;6.00;;;3.70;;
78410;SDS011;67706;51.074;-1.796;2023-04-16T02:30:46;6.38;;;4.03;;
78410;SDS011;67706;51.074;-1.796;2023-04-16T02:33:12;6.00;;;3.83;;
78410;SDS011;67706;51.074;-1.796;2023-04-16T02:35:39;5.88;;;3.70;;
78410;SDS011;67706;51.074;-1.796;2023-04-16T02:38:06;7.43;;;4.05;;
78410;SDS011;67706;51.074;-1.796;2023-04-16T02:40:33;5.78;;;3.65;;
78410;SDS011;67706;51.074;-1.796;2023-04-16T02:43:00;5.43;;;4.00;;
78410;SDS011;67706;51.074;-1.796;2023-04-16T02:45:27;4.78;;;3.65;;
78410;SDS011;67706;51.074;-1.796;2023-04-16T02:47:57;6.53;;;3.65;;
78410;SDS011;67706;51.074;-1.796;2023-04-16T02:50:24;6.07;;;3.60;;
78410;SDS011;67706;51.074;-1.796;2023-04-16T02:52:51;8.55;;;3.92;;
78410;SDS011;67706;51.074;-1.796;2023-04-16T02:55:18;6.10;;;4.00;;
78410;SDS011;67706;51.074;-1.796;2023-04-16T02:57:45;4.75;;;3.35;;
78410;SDS011;67706;51.074;-1.796;2023-04-16T03:00:12;6.07;;;3.50;;
78410;SDS011;67706;51.074;-1.796;2023-04-16T03:02:39;5.53;;;3.15;;
78410;SDS011;67706;51.074;-1.796;2023-04-16T03:05:08;7.82;;;3.60;;
78410;SDS011;67706;51.074;-1.796;2023-04-16T03:07:36;4.65;;;3.20;;
78410;SDS011;67706;51.074;-1.796;2023-04-16T03:10:05;6.72;;;3.83;;
78410;SDS011;67706;51.074;-1.796;2023-04-16T03:12:33;5.57;;;3.83;;
78410;SDS011;67706;51.074;-1.796;2023-04-16T03:15:00;6.68;;;3.22;;
78410;SDS011;67706;51.074;-1.796;2023-04-16T03:17:27;5.60;;;3.60;;
78410;SDS011;67706;51.074;-1.796;2023-04-16T03:19:54;7.28;;;3.90;;
78410;SDS011;67706;51.074;-1.796;2023-04-16T03:22:22;5.78;;;3.83;;
78410;SDS011;67706;51.074;-1.796;2023-04-16T03:24:49;6.13;;;4.45;;
78410;SDS011;67706;51.074;-1.796;2023-04-16T03:27:19;7.65;;;4.15;;
78410;SDS011;67706;51.074;-1.796;2023-04-16T03:29:46;6.65;;;4.43;;
78410;SDS011;67706;51.074;-1.796;2023-04-16T03:32:13;6.63;;;4.40;;
78410;SDS011;67706;51.074;-1.796;2023-04-16T03:34:39;6.35;;;3.88;;
78410;SDS011;67706;51.074;-1.796;2023-04-16T03:37:06;5.85;;;4.18;;
78410;SDS011;67706;51.074;-1.796;2023-04-16T03:39:37;7.75;;;3.63;;
78410;SDS011;67706;51.074;-1.796;2023-04-16T03:42:04;5.10;;;3.60;;
78410;SDS011;67706;51.074;-1.796;2023-04-16T03:44:30;8.30;;;4.15;;
78410;SDS011;67706;51.074;-1.796;2023-04-16T03:46:57;6.93;;;4.10;;
78410;SDS011;67706;51.074;-1.796;2023-04-16T03:49:24;6.55;;;3.30;;
78410;SDS011;67706;51.074;-1.796;2023-04-16T03:51:50;7.93;;;4.18;;
78410;SDS011;67706;51.074;-1.796;2023-04-16T03:54:17;6.72;;;4.05;;
78410;SDS011;67706;51.074;-1.796;2023-04-16T03:56:46;5.55;;;3.95;;
78410;SDS011;67706;51.074;-1.796;2023-04-16T03:59:13;9.95;;;3.88;;
78410;SDS011;67706;51.074;-1.796;2023-04-16T04:01:39;6.00;;;4.10;;
78410;SDS011;67706;51.074;-1.796;2023-04-16T04:04:06;7.43;;;4.18;;
78410;SDS011;67706;51.074;-1.796;2023-04-16T04:06:33;7.03;;;3.55;;
78410;SDS011;67706;51.074;-1.796;2023-04-16T04:09:00;7.78;;;3.75;;
78410;SDS011;67706;51.074;-1.796;2023-04-16T04:11:30;6.07;;;3.65;;
78410;SDS011;67706;51.074;-1.796;2023-04-16T04:14:02;7.43;;;3.92;;
78410;SDS011;67706;51.074;-1.796;2023-04-16T04:16:29;5.75;;;4.00;;
78410;SDS011;67706;51.074;-1.796;2023-04-16T04:18:55;6.07;;;4.13;;
78410;SDS011;67706;51.074;-1.796;2023-04-16T04:21:24;6.32;;;3.90;;
78410;SDS011;67706;51.074;-1.796;2023-04-16T04:23:51;7.25;;;4.45;;
78410;SDS011;67706;51.074;-1.796;2023-04-16T04:26:18;7.13;;;4.53;;
78410;SDS011;67706;51.074;-1.796;2023-04-16T04:28:45;7.45;;;4.30;;
78410;SDS011;67706;51.074;-1.796;2023-04-16T04:31:13;7.45;;;4.97;;
78410;SDS011;67706;51.074;-1.796;2023-04-16T04:33:40;8.02;;;4.60;;
78410;SDS011;67706;51.074;-1.796;2023-04-16T04:36:07;7.10;;;4.18;;
78410;SDS011;67706;51.074;-1.796;2023-04-16T04:38:33;7.13;;;4.45;;
78410;SDS011;67706;51.074;-1.796;2023-04-16T04:41:00;7.63;;;4.32;;
78410;SDS011;67706;51.074;-1.796;2023-04-16T04:43:27;7.90;;;4.22;;
78410;SDS011;67706;51.074;-1.796;2023-04-16T04:45:54;7.05;;;3.83;;
78410;SDS011;67706;51.074;-1.796;2023-04-16T04:48:22;8.55;;;4.00;;
78410;SDS011;67706;51.074;-1.796;2023-04-16T04:50:50;7.60;;;4.10;;
78410;SDS011;67706;51.074;-1.796;2023-04-16T04:53:18;5.75;;;4.13;;
78410;SDS011;67706;51.074;-1.796;2023-04-16T04:55:44;7.03;;;4.38;;
78410;SDS011;67706;51.074;-1.796;2023-04-16T04:58:11;5.88;;;4.25;;
78410;SDS011;67706;51.074;-1.796;2023-04-16T05:00:38;7.28;;;4.10;;
78410;SDS011;67706;51.074;-1.796;2023-04-16T05:03:05;7.20;;;4.03;;
78410;SDS011;67706;51.074;-1.796;2023-04-16T05:05:36;6.63;;;4.03;;
78410;SDS011;67706;51.074;-1.796;2023-04-16T05:08:03;5.63;;;3.80;;
78410;SDS011;67706;51.074;-1.796;2023-04-16T05:10:30;6.40;;;4.07;;
78410;SDS011;67706;51.074;-1.796;2023-04-16T05:12:57;7.95;;;4.47;;
78410;SDS011;67706;51.074;-1.796;2023-04-16T05:15:23;6.13;;;3.85;;
78410;SDS011;67706;51.074;-1.796;2023-04-16T05:17:50;7.43;;;4.10;;
78410;SDS011;67706;51.074;-1.796;2023-04-16T05:20:17;6.45;;;4.20;;
78410;SDS011;67706;51.074;-1.796;2023-04-16T05:22:45;7.15;;;3.97;;
78410;SDS011;67706;51.074;-1.796;2023-04-16T05:25:12;7.45;;;4.25;;
78410;SDS011;67706;51.074;-1.796;2023-04-16T05:27:39;6.43;;;4.22;;
78410;SDS011;67706;51.074;-1.796;2023-04-16T05:30:06;6.28;;;3.88;;
78410;SDS011;67706;51.074;-1.796;2023-04-16T05:32:33;9.23;;;4.70;;
78410;SDS011;67706;51.074;-1.796;2023-04-16T05:35:00;6.72;;;4.07;;
78410;SDS011;67706;51.074;-1.796;2023-04-16T05:37:27;6.32;;;4.20;;
78410;SDS011;67706;51.074;-1.796;2023-04-16T05:39:55;5.97;;;3.80;;
78410;SDS011;67706;51.074;-1.796;2023-04-16T05:42:22;6.00;;;3.88;;
78410;SDS011;67706;51.074;-1.796;2023-04-16T05:44:49;5.68;;;3.95;;
78410;SDS011;67706;51.074;-1.796;2023-04-16T05:47:16;6.03;;;4.53;;
78410;SDS011;67706;51.074;-1.796;2023-04-16T05:49:42;7.60;;;4.22;;
78410;SDS011;67706;51.074;-1.796;2023-04-16T05:52:09;7.05;;;4.47;;
78410;SDS011;67706;51.074;-1.796;2023-04-16T05:54:36;4.82;;;3.13;;
78410;SDS011;67706;51.074;-1.796;2023-04-16T05:57:04;6.75;;;4.07;;
78410;SDS011;67706;51.074;-1.796;2023-04-16T05:59:31;6.85;;;3.53;;
78410;SDS011;67706;51.074;-1.796;2023-04-16T06:01:58;8.05;;;4.13;;
78410;SDS011;67706;51.074;-1.796;2023-04-16T06:04:25;5.43;;;3.25;;
78410;SDS011;67706;51.074;-1.796;2023-04-16T06:06:52;6.70;;;4.00;;
78410;SDS011;67706;51.074;-1.796;2023-04-16T06:09:18;7.00;;;3.83;;
78410;SDS011;67706;51.074;-1.796;2023-04-16T06:11:45;5.32;;;3.47;;
78410;SDS011;67706;51.074;-1.796;2023-04-16T06:14:13;4.40;;;3.10;;
78410;SDS011;67706;51.074;-1.796;2023-04-16T06:16:40;7.38;;;3.30;;
78410;SDS011;67706;51.074;-1.796;2023-04-16T06:19:07;5.68;;;3.15;;
78410;SDS011;67706;51.074;-1.796;2023-04-16T06:21:33;6.28;;;4.03;;
78410;SDS011;67706;51.074;-1.796;2023-04-16T06:24:01;5.53;;;3.50;;
78410;SDS011;67706;51.074;-1.796;2023-04-16T06:26:28;5.57;;;3.15;;
78410;SDS011;67706;51.074;-1.796;2023-04-16T06:28:55;5.00;;;3.22;;
78410;SDS011;67706;51.074;-1.796;2023-04-16T06:31:27;6.75;;;3.45;;
78410;SDS011;67706;51.074;-1.796;2023-04-16T06:33:55;8.48;;;3.83;;
78410;SDS011;67706;51.074;-1.796;2023-04-16T06:36:21;4.95;;;3.25;;
78410;SDS011;67706;51.074;-1.796;2023-04-16T06:38:48;5.30;;;3.63;;
78410;SDS011;67706;51.074;-1.796;2023-04-16T06:41:15;6.63;;;3.75;;
78410;SDS011;67706;51.074;-1.796;2023-04-16T06:43:42;5.50;;;3.75;;
78410;SDS011;67706;51.074;-1.796;2023-04-16T06:46:09;5.45;;;3.70;;
78410;SDS011;67706;51.074;-1.796;2023-04-16T06:48:37;5.53;;;3.60;;
78410;SDS011;67706;51.074;-1.796;2023-04-16T06:51:04;6.20;;;3.78;;
78410;SDS011;67706;51.074;-1.796;2023-04-16T06:53:31;5.93;;;3.80;;
78410;SDS011;67706;51.074;-1.796;2023-04-16T06:55:58;4.88;;;3.22;;
78410;SDS011;67706;51.074;-1.796;2023-04-16T06:58:24;7.40;;;3.92;;
78410;SDS011;67706;51.074;-1.796;2023-04-16T07:00:51;6.70;;;3.20;;
78410;SDS011;67706;51.074;-1.796;2023-04-16T07:03:18;4.43;;;3.08;;
78410;SDS011;67706;51.074;-1.796;2023-04-16T07:05:46;5.10;;;3.15;;
78410;SDS011;67706;51.074;-1.796;2023-04-16T07:08:12;5.57;;;3.05;;
78410;SDS011;67706;51.074;-1.796;2023-04-16T07:10:39;5.35;;;3.42;;
78410;SDS011;67706;51.074;-1.796;2023-04-16T07:13:06;4.32;;;2.70;;
78410;SDS011;67706;51.074;-1.796;2023-04-16T07:15:33;4.93;;;3.58;;
78410;SDS011;67706;51.074;-1.796;2023-04-16T07:18:00;5.97;;;3.28;;
78410;SDS011;67706;51.074;-1.796;2023-04-16T07:20:27;8.45;;;4.45;;
78410;SDS011;67706;51.074;-1.796;2023-04-16T07:22:55;8.95;;;3.50;;
78410;SDS011;67706;51.074;-1.796;2023-04-16T07:25:23;4.53;;;3.22;;
78410;SDS011;67706;51.074;-1.796;2023-04-16T07:27:50;3.80;;;2.88;;
78410;SDS011;67706;51.074;-1.796;2023-04-16T07:30:17;8.88;;;4.10;;
78410;SDS011;67706;51.074;-1.796;2023-04-16T07:32:44;5.53;;;3.53;;
78410;SDS011;67706;51.074;-1.796;2023-04-16T07:35:11;5.00;;;3.42;;
78410;SDS011;67706;51.074;-1.796;2023-04-16T07:37:38;4.68;;;3.58;;
78410;SDS011;67706;51.074;-1.796;2023-04-16T07:40:07;4.30;;;2.95;;
78410;SDS011;67706;51.074;-1.796;2023-04-16T07:42:35;6.85;;;3.38;;
78410;SDS011;67706;51.074;-1.796;2023-04-16T07:45:01;7.65;;;3.90;;
78410;SDS011;67706;51.074;-1.796;2023-04-16T07:47:28;7.95;;;3.10;;
78410;SDS011;67706;51.074;-1.796;2023-04-16T07:49:55;7.93;;;3.35;;
78410;SDS011;67706;51.074;-1.796;2023-04-16T07:52:22;5.95;;;2.85;;
78410;SDS011;67706;51.074;-1.796;2023-04-16T07:54:48;6.53;;;2.88;;
78410;SDS011;67706;51.074;-1.796;2023-04-16T07:57:18;6.30;;;3.13;;
78410;SDS011;67706;51.074;-1.796;2023-04-16T07:59:45;4.45;;;2.70;;
78410;SDS011;67706;51.074;-1.796;2023-04-16T08:02:13;5.53;;;2.50;;
78410;SDS011;67706;51.074;-1.796;2023-04-16T08:04:40;6.80;;;3.08;;
78410;SDS011;67706;51.074;-1.796;2023-04-16T08:07:07;9.85;;;2.95;;
78410;SDS011;67706;51.074;-1.796;2023-04-16T08:09:34;5.43;;;2.85;;
78410;SDS011;67706;51.074;-1.796;2023-04-16T08:12:01;11.52;;;3.58;;
78410;SDS011;67706;51.074;-1.796;2023-04-16T08:14:30;5.78;;;2.92;;
78410;SDS011;67706;51.074;-1.796;2023-04-16T08:16:57;6.50;;;3.22;;
78410;SDS011;67706;51.074;-1.796;2023-04-16T08:19:23;5.22;;;2.65;;
78410;SDS011;67706;51.074;-1.796;2023-04-16T08:21:50;6.45;;;2.80;;
78410;SDS011;67706;51.074;-1.796;2023-04-16T08:24:17;10.55;;;3.67;;
78410;SDS011;67706;51.074;-1.796;2023-04-16T08:26:44;4.70;;;2.40;;
78410;SDS011;67706;51.074;-1.796;2023-04-16T08:29:10;3.95;;;2.60;;
78410;SDS011;67706;51.074;-1.796;2023-04-16T08:31:38;5.47;;;2.75;;
78410;SDS011;67706;51.074;-1.796;2023-04-16T08:34:06;4.07;;;2.42;;
78410;SDS011;67706;51.074;-1.796;2023-04-16T08:36:35;5.22;;;2.00;;
78410;SDS011;67706;51.074;-1.796;2023-04-16T08:39:02;7.20;;;2.25;;
78410;SDS011;67706;51.074;-1.796;2023-04-16T08:41:29;9.20;;;2.20;;
78410;SDS011;67706;51.074;-1.796;2023-04-16T08:43:58;4.57;;;2.38;;
78410;SDS011;67706;51.074;-1.796;2023-04-16T08:46:26;6.85;;;2.25;;
78410;SDS011;67706;51.074;-1.796;2023-04-16T08:48:56;4.55;;;2.35;;
78410;SDS011;67706;51.074;-1.796;2023-04-16T08:51:25;4.43;;;2.25;;
78410;SDS011;67706;51.074;-1.796;2023-04-16T08:53:58;10.32;;;3.25;;
78410;SDS011;67706;51.074;-1.796;2023-04-16T08:56:28;4.22;;;1.90;;
78410;SDS011;67706;51.074;-1.796;2023-04-16T08:58:57;5.20;;;2.30;;
78410;SDS011;67706;51.074;-1.796;2023-04-16T09:01:26;3.63;;;2.00;;
78410;SDS011;67706;51.074;-1.796;2023-04-16T09:03:53;5.47;;;2.30;;
78410;SDS011;67706;51.074;-1.796;2023-04-16T09:06:21;5.53;;;2.20;;
78410;SDS011;67706;51.074;-1.796;2023-04-16T09:08:48;5.80;;;1.95;;
78410;SDS011;67706;51.074;-1.796;2023-04-16T09:11:16;6.07;;;2.53;;
78410;SDS011;67706;51.074;-1.796;2023-04-16T09:13:43;10.55;;;2.67;;
78410;SDS011;67706;51.074;-1.796;2023-04-16T09:16:11;5.90;;;1.95;;
78410;SDS011;67706;51.074;-1.796;2023-04-16T09:18:39;5.72;;;2.00;;
78410;SDS011;67706;51.074;-1.796;2023-04-16T09:21:06;2.70;;;1.77;;
78410;SDS011;67706;51.074;-1.796;2023-04-16T09:23:36;8.60;;;2.38;;
78410;SDS011;67706;51.074;-1.796;2023-04-16T09:26:04;6.70;;;1.80;;
78410;SDS011;67706;51.074;-1.796;2023-04-16T09:28:41;3.33;;;1.67;;
78410;SDS011;67706;51.074;-1.796;2023-04-16T09:31:11;7.32;;;2.33;;
78410;SDS011;67706;51.074;-1.796;2023-04-16T09:33:39;9.07;;;2.30;;
78410;SDS011;67706;51.074;-1.796;2023-04-16T09:36:06;5.63;;;1.40;;
78410;SDS011;67706;51.074;-1.796;2023-04-16T09:38:48;5.97;;;1.40;;
78410;SDS011;67706;51.074;-1.796;2023-04-16T09:41:15;5.22;;;1.60;;
78410;SDS011;67706;51.074;-1.796;2023-04-16T09:43:52;2.67;;;1.40;;
78410;SDS011;67706;51.074;-1.796;2023-04-16T09:46:21;6.53;;;1.90;;
78410;SDS011;67706;51.074;-1.796;2023-04-16T09:48:48;4.32;;;1.85;;
78410;SDS011;67706;51.074;-1.796;2023-04-16T09:51:15;5.97;;;1.67;;
78410;SDS011;67706;51.074;-1.796;2023-04-16T09:53:42;8.90;;;2.53;;
78410;SDS011;67706;51.074;-1.796;2023-04-16T09:56:10;5.80;;;1.90;;
78410;SDS011;67706;51.074;-1.796;2023-04-16T09:58:37;7.85;;;1.80;;
78410;SDS011;67706;51.074;-1.796;2023-04-16T10:01:04;3.78;;;2.03;;
78410;SDS011;67706;51.074;-1.796;2023-04-16T10:03:34;4.63;;;1.75;;
78410;SDS011;67706;51.074;-1.796;2023-04-16T10:06:05;6.45;;;2.15;;
78410;SDS011;67706;51.074;-1.796;2023-04-16T10:08:33;8.52;;;2.05;;
78410;SDS011;67706;51.074;-1.796;2023-04-16T10:11:01;7.90;;;2.70;;
78410;SDS011;67706;51.074;-1.796;2023-04-16T10:13:29;6.90;;;2.05;;
78410;SDS011;67706;51.074;-1.796;2023-04-16T10:15:57;5.93;;;2.60;;
78410;SDS011;67706;51.074;-1.796;2023-04-16T10:18:24;4.63;;;2.30;;
78410;SDS011;67706;51.074;-1.796;2023-04-16T10:20:54;5.43;;;2.80;;
78410;SDS011;67706;51.074;-1.796;2023-04-16T10:23:22;4.95;;;3.00;;
78410;SDS011;67706;51.074;-1.796;2023-04-16T10:25:49;7.03;;;2.60;;
78410;SDS011;67706;51.074;-1.796;2023-04-16T10:28:17;5.32;;;2.22;;
78410;SDS011;67706;51.074;-1.796;2023-04-16T10:30:46;4.10;;;2.00;;
78410;SDS011;67706;51.074;-1.796;2023-04-16T10:33:18;5.05;;;2.28;;
78410;SDS011;67706;51.074;-1.796;2023-04-16T10:35:47;5.13;;;2.17;;
78410;SDS011;67706;51.074;-1.796;2023-04-16T10:38:21;7.43;;;2.65;;
78410;SDS011;67706;51.074;-1.796;2023-04-16T10:40:50;6.10;;;2.00;;
78410;SDS011;67706;51.074;-1.796;2023-04-16T10:43:24;3.53;;;1.10;;
78410;SDS011;67706;51.074;-1.796;2023-04-16T10:45:52;5.10;;;1.15;;
78410;SDS011;67706;51.074;-1.796;2023-04-16T10:48:19;8.23;;;1.30;;
78410;SDS011;67706;51.074;-1.796;2023-04-16T10:50:52;2.35;;;0.98;;
78410;SDS011;67706;51.074;-1.796;2023-04-16T10:53:22;3.50;;;1.77;;
78410;SDS011;67706;51.074;-1.796;2023-04-16T10:55:56;2.75;;;1.75;;
78410;SDS011;67706;51.074;-1.796;2023-04-16T10:58:39;4.55;;;1.40;;
78410;SDS011;67706;51.074;-1.796;2023-04-16T11:01:12;5.30;;;2.28;;
78410;SDS011;67706;51.074;-1.796;2023-04-16T11:03:41;3.35;;;1.98;;
78410;SDS011;67706;51.074;-1.796;2023-04-16T11:06:09;4.05;;;1.77;;
78410;SDS011;67706;51.074;-1.796;2023-04-16T11:08:40;5.80;;;1.50;;
78410;SDS011;67706;51.074;-1.796;2023-04-16T11:11:12;4.05;;;1.50;;
78410;SDS011;67706;51.074;-1.796;2023-04-16T11:13:41;4.82;;;1.10;;
78410;SDS011;67706;51.074;-1.796;2023-04-16T11:16:09;6.30;;;0.98;;
78410;SDS011;67706;51.074;-1.796;2023-04-16T11:18:38;2.38;;;1.05;;
78410;SDS011;67706;51.074;-1.796;2023-04-16T11:21:06;6.15;;;1.33;;
78410;SDS011;67706;51.074;-1.796;2023-04-16T11:23:44;4.80;;;1.17;;
78410;SDS011;67706;51.074;-1.796;2023-04-16T11:26:24;4.88;;;1.13;;
78410;SDS011;67706;51.074;-1.796;2023-04-16T11:28:52;4.00;;;1.02;;
78410;SDS011;67706;51.074;-1.796;2023-04-16T11:31:20;3.75;;;1.38;;
78410;SDS011;67706;51.074;-1.796;2023-04-16T11:33:48;4.10;;;0.80;;
78410;SDS011;67706;51.074;-1.796;2023-04-16T11:36:15;4.45;;;0.90;;
78410;SDS011;67706;51.074;-1.796;2023-04-16T11:38:41;1.80;;;0.90;;
78410;SDS011;67706;51.074;-1.796;2023-04-16T11:41:08;4.40;;;0.77;;
78410;SDS011;67706;51.074;-1.796;2023-04-16T11:43:35;2.90;;;0.95;;
78410;SDS011;67706;51.074;-1.796;2023-04-16T11:46:03;1.77;;;0.73;;
78410;SDS011;67706;51.074;-1.796;2023-04-16T11:51:14;3.25;;;0.90;;
78410;SDS011;67706;51.074;-1.796;2023-04-16T11:53:44;3.13;;;0.95;;
78410;SDS011;67706;51.074;-1.796;2023-04-16T11:56:12;3.28;;;1.17;;
78410;SDS011;67706;51.074;-1.796;2023-04-16T11:58:40;1.98;;;1.05;;
78410;SDS011;67706;51.074;-1.796;2023-04-16T12:01:06;3.00;;;0.95;;
78410;SDS011;67706;51.074;-1.796;2023-04-16T12:03:37;3.40;;;1.10;;
78410;SDS011;67706;51.074;-1.796;2023-04-16T12:06:09;3.42;;;0.90;;
78410;SDS011;67706;51.074;-1.796;2023-04-16T12:08:36;3.88;;;0.80;;
78410;SDS011;67706;51.074;-1.796;2023-04-16T12:11:02;2.38;;;0.77;;
78410;SDS011;67706;51.074;-1.796;2023-04-16T12:13:29;2.58;;;0.90;;
78410;SDS011;67706;51.074;-1.796;2023-04-16T12:16:11;2.00;;;0.73;;
78410;SDS011;67706;51.074;-1.796;2023-04-16T12:18:57;4.65;;;0.77;;
78410;SDS011;67706;51.074;-1.796;2023-04-16T12:21:35;4.72;;;1.00;;
78410;SDS011;67706;51.074;-1.796;2023-04-16T12:24:03;1.80;;;0.60;;
78410;SDS011;67706;51.074;-1.796;2023-04-16T12:26:40;3.55;;;0.88;;
78410;SDS011;67706;51.074;-1.796;2023-04-16T12:29:18;1.65;;;0.50;;
78410;SDS011;67706;51.074;-1.796;2023-04-16T12:31:46;2.35;;;0.70;;
78410;SDS011;67706;51.074;-1.796;2023-04-16T12:34:13;3.17;;;0.95;;
78410;SDS011;67706;51.074;-1.796;2023-04-16T12:36:42;1.55;;;0.50;;
78410;SDS011;67706;51.074;-1.796;2023-04-16T12:39:10;1.58;;;0.60;;
78410;SDS011;67706;51.074;-1.796;2023-04-16T12:41:38;1.65;;;0.65;;
78410;SDS011;67706;51.074;-1.796;2023-04-16T12:44:06;1.88;;;0.55;;
78410;SDS011;67706;51.074;-1.796;2023-04-16T12:46:36;3.35;;;0.70;;
78410;SDS011;67706;51.074;-1.796;2023-04-16T12:49:03;1.48;;;0.43;;
78410;SDS011;67706;51.074;-1.796;2023-04-16T12:51:30;3.70;;;0.95;;
78410;SDS011;67706;51.074;-1.796;2023-04-16T12:53:59;1.02;;;0.45;;
78410;SDS011;67706;51.074;-1.796;2023-04-16T12:56:26;1.98;;;0.52;;
78410;SDS011;67706;51.074;-1.796;2023-04-16T12:58:53;1.77;;;0.50;;
78410;SDS011;67706;51.074;-1.796;2023-04-16T13:01:20;1.95;;;0.60;;
78410;SDS011;67706;51.074;-1.796;2023-04-16T13:03:47;4.72;;;0.60;;
78410;SDS011;67706;51.074;-1.796;2023-04-16T13:06:14;3.97;;;0.60;;
78410;SDS011;67706;51.074;-1.796;2023-04-16T13:08:42;1.00;;;0.60;;
78410;SDS011;67706;51.074;-1.796;2023-04-16T13:11:10;2.45;;;0.80;;
78410;SDS011;67706;51.074;-1.796;2023-04-16T13:13:37;2.75;;;0.60;;
78410;SDS011;67706;51.074;-1.796;2023-04-16T13:16:04;3.03;;;0.80;;
78410;SDS011;67706;51.074;-1.796;2023-04-16T13:18:33;3.05;;;0.60;;
78410;SDS011;67706;51.074;-1.796;2023-04-16T13:21:01;2.80;;;0.43;;
78410;SDS011;67706;51.074;-1.796;2023-04-16T13:23:28;5.30;;;0.90;;
78410;SDS011;67706;51.074;-1.796;2023-04-16T13:25:55;2.63;;;0.90;;
78410;SDS011;67706;51.074;-1.796;2023-04-16T13:28:23;3.33;;;0.80;;
78410;SDS011;67706;51.074;-1.796;2023-04-16T13:30:50;2.05;;;0.80;;
78410;SDS011;67706;51.074;-1.796;2023-04-16T13:33:17;1.35;;;0.55;;
78410;SDS011;67706;51.074;-1.796;2023-04-16T13:35:44;5.72;;;0.93;;
78410;SDS011;67706;51.074;-1.796;2023-04-16T13:38:11;6.15;;;1.50;;
78410;SDS011;67706;51.074;-1.796;2023-04-16T13:40:38;2.65;;;0.90;;
78410;SDS011;67706;51.074;-1.796;2023-04-16T13:43:05;3.08;;;0.80;;
78410;SDS011;67706;51.074;-1.796;2023-04-16T13:45:33;1.67;;;0.80;;
78410;SDS011;67706;51.074;-1.796;2023-04-16T13:48:01;3.40;;;1.00;;
78410;SDS011;67706;51.074;-1.796;2023-04-16T13:50:27;2.60;;;0.80;;
78410;SDS011;67706;51.074;-1.796;2023-04-16T13:52:54;3.20;;;1.38;;
78410;SDS011;67706;51.074;-1.796;2023-04-16T13:55:21;2.95;;;1.10;;
78410;SDS011;67706;51.074;-1.796;2023-04-16T13:57:48;4.95;;;1.20;;
78410;SDS011;67706;51.074;-1.796;2023-04-16T14:00:16;7.70;;;1.63;;
78410;SDS011;67706;51.074;-1.796;2023-04-16T14:02:45;4.10;;;1.05;;
78410;SDS011;67706;51.074;-1.796;2023-04-16T14:05:12;5.32;;;1.60;;
78410;SDS011;67706;51.074;-1.796;2023-04-16T14:07:39;4.72;;;1.80;;
78410;SDS011;67706;51.074;-1.796;2023-04-16T14:10:07;3.55;;;1.08;;
78410;SDS011;67706;51.074;-1.796;2023-04-16T14:12:34;2.80;;;0.65;;
78410;SDS011;67706;51.074;-1.796;2023-04-16T14:15:01;3.75;;;0.93;;
78410;SDS011;67706;51.074;-1.796;2023-04-16T14:17:30;3.13;;;0.88;;
78410;SDS011;67706;51.074;-1.796;2023-04-16T14:19:58;5.35;;;1.20;;
78410;SDS011;67706;51.074;-1.796;2023-04-16T14:22:25;1.80;;;0.63;;
78410;SDS011;67706;51.074;-1.796;2023-04-16T14:24:52;3.83;;;0.85;;
78410;SDS011;67706;51.074;-1.796;2023-04-16T14:27:18;2.47;;;0.77;;
78410;SDS011;67706;51.074;-1.796;2023-04-16T14:29:45;5.07;;;0.80;;
78410;SDS011;67706;51.074;-1.796;2023-04-16T14:32:12;2.78;;;0.82;;
78410;SDS011;67706;51.074;-1.796;2023-04-16T14:34:38;2.75;;;1.00;;
78410;SDS011;67706;51.074;-1.796;2023-04-16T14:37:07;2.72;;;0.70;;
78410;SDS011;67706;51.074;-1.796;2023-04-16T14:39:33;3.72;;;0.70;;